TFM - Tactical Decision Aid
ID: Runway Winds: CIG/VIS Threshold:

KOGB - Orangeburg Muni, SC, US

Updated at: 1949 UTC 25 Sep 2020
Latest TAF at: 1931 UTC 25 Sep 2020

TAF Board

Time1929Z 25/20Z 25/21Z 25/22Z 25/23Z 26/00Z 26/01Z 26/02Z 26/03Z 26/04Z 26/05Z 26/06Z 26/07Z 26/08Z>>
Type OBS PRVL
  [TEMP]  
PRVL
  [TEMP]  
PRVL PRVL PRVL PRVL PRVL PRVL PRVL PRVL PRVL PRVL PRVL
VIS 10 >6
  [3]  
>6
  [3]  
>6 >6 >6 >6 >6 >6 >6 4 4 4 2
CIG 70 35
  [25]  
35
  [25]  
35 35 25 25 25 25 25 7 7 7 3
Cover OVC BKN
  [BKN]  
BKN
  [BKN]  
BKN BKN BKN BKN BKN BKN BKN OVC OVC OVC OVC
FltCat VFR VFR
  [MVFR]  
VFR
  [MVFR]  
VFR VFR MVFR MVFR MVFR MVFR MVFR IFR IFR IFR LIFR
WX VCTS VCSH
  [TSRA]  
VCSH
  [TSRA]  
VCSH VCSH VCSH VCSH VCSH VCSH VCSH BR BR BR BR
WDir 320 230
[230]
230
[230]
230 230 VRB VRB VRB VRB VRB VRB VRB VRB VRB
WSpd 4 7
  [7]  
7
  [7]  
7 7 4 4 4 4 4 0 0 0 3
WGst -- --
  [--]  
--
  [--]  
-- -- -- -- -- -- -- -- -- -- --

TDA Impact Legend

  None Marginal Slight Moderate High
Visibility (sm) >5 3≤X≤5 2≤X<3 1≤X<2 <1
Ceiling (100 ft) >30 10≤X≤30 8≤X<10 3≤X<8 <3
Wind Speed (kt) <15 15≤X<25 25≤X<30 ≥30
Wind Gust (kt) <15 15≤X<25 25≤X<35 ≥35
Weather No Wx Reported VCTS -TS,-FZRA TS,FZRA +TS,+FZRA
TAF
KOGB 251931Z 2520/2618 23007KT P6SM VCSH SCT015 BKN035
  TEMPO 2520/2522 3SM TSRA BKN025CB
  FM260000 VRB04KT P6SM VCSH SCT012 BKN025
  FM260500 00000KT 4SM BR OVC007
  FM260800 VRB03KT 2SM BR OVC003
  TEMPO 2610/2613 1/2SM FG OVC001
  FM261500 VRB03KT 5SM BR OVC006


METAR
KOGB 251929Z AUTO 32004KT 10SM VCTS FEW031 BKN070 OVC090 26/24 A2995 RMK AO2 LTG DSNT E RAB1857E16 TSB08E23 P0005 T02610239
KOGB 251908Z AUTO 34007KT 3SM -TSRA BR FEW026 BKN034 OVC070 25/24 A2994 RMK AO2 RAB1857 TSB08 P0005 T02500239
KOGB 251853Z AUTO 26007KT 10SM BKN034 BKN046 BKN060 29/22 A2995 RMK AO2 SLP138 T02890217
KOGB 251753Z AUTO 21010KT 10SM CLR 30/22 A2996 RMK AO2 SLP142 6//// T03000222 10300 20222 58017
KOGB 251653Z AUTO 22010KT 10SM FEW023 29/23 A2998 RMK AO2 SLP150 T02890228
KOGB 251641Z AUTO 20010KT 10SM FEW020 SCT028 28/23 A2999 RMK AO2 T02830228

Radar Display
Forecast Discussion